Time;durP1;ratioP1;P1;durP2;ratioP2;P2;SDS_P1;SDS_P2;PMS_P1;PMS_P2;Temp;Humidity;BMP_temperature;BMP_pressure;BME280_temperature;BME280_humidity;BME280_pressure;Samples;Min_cycle;Max_cycle;Signal;HPM_P1;HPM_P2
2023/08/20 00:01:28;;;;;;;17.25;3.75;;;;;;;21.17;63.56;100190.75;10297461;28;20047;-71
2023/08/20 00:06:29;;;;;;;9.90;3.05;;;;;;;20.43;64.25;100109.63;10297392;28;20045;-71
2023/08/20 00:11:30;;;;;;;13.27;3.58;;;;;;;20.78;63.91;100176.22;10296776;28;20093;-83
2023/08/20 00:16:31;;;;;;;27.95;4.30;;;;;;;21.00;64.23;100211.50;10297179;28;20463;-82
2023/08/20 00:21:33;;;;;;;8.15;3.38;;;;;;;20.37;64.80;100127.63;10297286;28;20514;-82
2023/08/20 00:26:34;;;;;;;17.10;3.65;;;;;;;20.87;65.52;100218.81;10297293;28;20529;-82
2023/08/20 00:31:35;;;;;;;10.25;3.75;;;;;;;21.08;65.80;100249.75;10296563;28;20042;-82
2023/08/20 00:36:36;;;;;;;12.70;3.40;;;;;;;20.37;65.82;100142.97;10295842;28;20058;-82
2023/08/20 00:41:37;;;;;;;13.32;3.40;;;;;;;20.93;66.23;100244.03;10296412;28;20529;-82
2023/08/20 00:46:38;;;;;;;6.72;3.22;;;;;;;20.86;66.28;100251.47;10295933;28;20035;-82
2023/08/20 00:51:39;;;;;;;15.27;3.90;;;;;;;20.69;66.64;100233.28;10277993;28;20042;-82
2023/08/20 00:56:40;;;;;;;7.25;3.30;;;;;;;20.37;66.36;100176.19;10278351;28;20035;-82
2023/08/20 01:01:41;;;;;;;9.30;3.63;;;;;;;20.45;65.23;100188.47;10293838;28;20046;-82
2023/08/20 01:06:53;;;;;;;11.23;3.85;;;;;;;20.15;66.47;100167.84;10296406;28;20139;-81
2023/08/20 01:11:59;;;;;;;14.95;4.13;;;;;;;19.86;66.79;100149.91;10294664;28;20506;-81
2023/08/20 01:16:59;;;;;;;19.30;4.00;;;;;;;19.93;66.75;100193.78;10294286;28;20035;-81
2023/08/20 01:22:00;;;;;;;14.07;4.82;;;;;;;20.18;67.24;100253.69;10293959;28;20054;-81
2023/08/20 01:27:09;;;;;;;12.43;3.90;;;;;;;20.09;69.10;100262.34;10277865;28;20420;-81
2023/08/20 01:32:12;;;;;;;48.75;6.25;;;;;;;20.01;68.61;100241.94;10294790;28;20585;-81
2023/08/20 01:37:12;;;;;;;111.77;8.20;;;;;;;19.67;68.42;100200.41;10293826;28;20047;-81
2023/08/20 01:42:13;;;;;;;36.65;5.22;;;;;;;19.79;68.76;100233.59;10293843;28;20064;-81
2023/08/20 01:47:14;;;;;;;75.15;8.20;;;;;;;19.46;68.65;100197.16;10294206;28;20035;-81
2023/08/20 01:52:15;;;;;;;72.70;6.95;;;;;;;19.38;68.13;100181.31;10293575;28;20038;-81
2023/08/20 01:57:16;;;;;;;91.10;8.93;;;;;;;19.86;68.21;100261.25;10293822;28;20097;-82
2023/08/20 02:02:16;;;;;;;56.75;7.35;;;;;;;19.74;67.96;100257.72;10292893;28;20410;-81
2023/08/20 02:07:17;;;;;;;203.40;16.17;;;;;;;19.61;68.29;100261.41;10293097;28;20054;-81
2023/08/20 02:12:18;;;;;;;97.28;9.45;;;;;;;19.54;68.28;100269.59;10292646;28;20113;-81
2023/08/20 02:17:19;;;;;;;34.60;5.55;;;;;;;19.30;68.29;100246.31;10293176;28;20050;-81
2023/08/20 02:22:20;;;;;;;158.00;11.90;;;;;;;19.09;68.33;100216.13;10274789;28;20063;-81
2023/08/20 02:27:21;;;;;;;287.10;22.63;;;;;;;19.20;68.65;100248.69;10292935;28;20042;-81
2023/08/20 02:32:22;;;;;;;157.98;12.95;;;;;;;18.93;68.81;100205.94;10292290;28;20046;-81
2023/08/20 02:37:23;;;;;;;170.65;14.18;;;;;;;18.96;69.28;100213.56;10292826;28;20051;-82
2023/08/20 02:42:23;;;;;;;48.05;6.32;;;;;;;19.46;69.56;100282.53;10292003;28;20053;-82
2023/08/20 02:47:24;;;;;;;77.93;6.43;;;;;;;19.48;69.89;100258.91;10273998;28;20521;-82
2023/08/20 02:52:25;;;;;;;65.68;7.47;;;;;;;19.16;69.53;100200.69;10291673;28;20050;-81
2023/08/20 02:57:26;;;;;;;63.10;6.88;;;;;;;19.47;70.25;100228.41;10292442;28;20550;-81
2023/08/20 03:02:27;;;;;;;205.25;15.48;;;;;;;19.88;70.61;100269.94;10291705;28;20044;-82
2023/08/20 03:07:27;;;;;;;33.17;5.82;;;;;;;20.33;69.88;100272.09;10291120;28;20043;-82
2023/08/20 03:12:29;;;;;;;42.60;5.53;;;;;;;21.22;68.38;100295.41;10289669;28;20047;-82
2023/08/20 03:17:29;;;;;;;40.38;5.43;;;;;;;21.94;66.12;100286.78;10291262;28;20045;-82
2023/08/20 03:22:30;;;;;;;24.48;4.70;;;;;;;22.49;63.65;100278.75;10290919;28;20510;-82
2023/08/20 03:27:31;;;;;;;28.17;4.53;;;;;;;23.06;61.23;100280.34;10296570;28;20450;-82
2023/08/20 03:32:32;;;;;;;24.45;3.55;;;;;;;23.84;59.20;100294.53;10298854;28;20039;-81
2023/08/20 03:37:33;;;;;;;17.77;3.65;;;;;;;24.38;57.73;100277.34;10298134;28;20046;-82
2023/08/20 03:42:34;;;;;;;52.22;5.90;;;;;;;25.17;56.95;100292.75;10298189;28;20101;-82
2023/08/20 03:47:34;;;;;;;25.77;3.95;;;;;;;25.84;55.48;100301.91;10297305;28;20043;-82
2023/08/20 03:52:35;;;;;;;23.30;3.78;;;;;;;26.27;54.99;100307.13;10279989;28;20474;-82
2023/08/20 03:57:36;;;;;;;36.25;4.38;;;;;;;26.60;53.96;100312.00;10297796;28;20054;-82
2023/08/20 04:02:37;;;;;;;17.50;3.42;;;;;;;26.64;53.08;100274.94;10297236;28;20516;-82
2023/08/20 04:07:37;;;;;;;17.13;3.80;;;;;;;26.81;52.11;100247.38;10297554;28;20075;-82
2023/08/20 04:12:38;;;;;;;15.68;3.45;;;;;;;27.12;51.87;100306.41;10279819;28;20130;-82
2023/08/20 04:17:40;;;;;;;11.00;3.78;;;;;;;26.95;51.61;100296.63;10296877;28;20038;-82
2023/08/20 04:22:41;;;;;;;17.40;3.83;;;;;;;27.00;51.67;100298.53;10297557;28;20059;-81
2023/08/20 04:27:42;;;;;;;23.95;4.10;;;;;;;27.52;51.38;100322.63;10296664;28;20070;-82
2023/08/20 04:32:43;;;;;;;12.82;3.72;;;;;;;28.02;50.23;100313.56;10296646;28;20066;-81
2023/08/20 04:37:44;;;;;;;10.00;3.72;;;;;;;28.83;48.64;100312.03;10295721;28;20121;-83
2023/08/20 04:42:45;;;;;;;14.95;3.60;;;;;;;29.33;47.17;100310.63;10295694;28;20125;-81
2023/08/20 04:47:48;;;;;;;13.77;4.15;;;;;;;29.72;46.07;100325.16;10278445;28;20486;-82
2023/08/20 04:52:49;;;;;;;8.25;3.55;;;;;;;29.83;45.53;100307.47;10295746;28;20494;-82
2023/08/20 04:57:50;;;;;;;14.07;3.70;;;;;;;29.92;45.07;100297.47;10295679;28;20043;-82
2023/08/20 05:02:51;;;;;;;13.27;3.58;;;;;;;29.40;45.52;100296.56;10295429;28;20053;-82
2023/08/20 05:07:52;;;;;;;15.52;3.92;;;;;;;29.16;44.86;100273.91;10295220;28;20042;-82
2023/08/20 05:12:53;;;;;;;13.80;4.47;;;;;;;28.95;45.13;100259.66;10295654;28;20051;-83
2023/08/20 05:17:53;;;;;;;14.57;4.10;;;;;;;28.93;45.98;100261.88;10294246;28;20125;-83
2023/08/20 05:22:54;;;;;;;18.33;3.70;;;;;;;29.28;45.04;100280.56;10292923;28;20402;-81
2023/08/20 05:27:55;;;;;;;14.05;3.47;;;;;;;29.71;45.01;100296.19;10294328;28;20054;-75
2023/08/20 05:32:56;;;;;;;14.05;3.53;;;;;;;30.03;43.51;100314.53;10289994;28;20406;-73
2023/08/20 05:37:56;;;;;;;12.77;3.55;;;;;;;30.38;43.13;100317.84;10292378;28;20046;-75
2023/08/20 05:42:57;;;;;;;26.05;4.85;;;;;;;30.28;42.44;100269.50;10293852;28;20043;-76
2023/08/20 05:47:58;;;;;;;37.33;5.03;;;;;;;30.46;42.67;100260.41;10292512;28;20034;-75
2023/08/20 05:53:00;;;;;;;29.17;4.20;;;;;;;31.04;41.89;100296.59;10276940;28;20050;-75
2023/08/20 05:58:01;;;;;;;22.43;4.23;;;;;;;31.29;41.01;100265.88;10292721;28;20042;-76
2023/08/20 06:03:02;;;;;;;10.75;3.55;;;;;;;31.94;39.95;100319.59;10292726;28;20065;-77
2023/08/20 06:08:03;;;;;;;23.65;4.45;;;;;;;32.04;40.66;100297.38;10275165;28;20051;-76
2023/08/20 06:13:03;;;;;;;17.63;4.40;;;;;;;32.38;40.74;100319.91;10292697;28;20043;-77
2023/08/20 06:18:04;;;;;;;18.60;4.75;;;;;;;32.63;39.53;100301.94;10292009;28;20042;-77
2023/08/20 06:23:05;;;;;;;29.40;4.75;;;;;;;33.09;38.39;100320.75;10292974;28;20110;-76
2023/08/20 06:28:06;;;;;;;20.23;3.30;;;;;;;33.40;33.69;100308.81;10302726;28;20497;-78
2023/08/20 06:33:07;;;;;;;9.73;2.50;;;;;;;33.57;30.65;100300.59;10312769;28;20474;-78
2023/08/20 06:38:08;;;;;;;22.42;2.80;;;;;;;33.81;30.15;100307.56;10324798;28;20049;-79
2023/08/20 06:43:08;;;;;;;8.55;2.60;;;;;;;33.75;28.13;100270.31;10319311;28;20038;-76
2023/08/20 06:48:09;;;;;;;14.27;2.50;;;;;;;33.96;27.45;100270.44;10308467;28;20414;-78
2023/08/20 06:53:10;;;;;;;16.60;2.83;;;;;;;34.34;27.40;100287.06;10273891;28;20046;-80
2023/08/20 06:58:11;;;;;;;11.40;2.90;;;;;;;34.29;25.71;100246.69;10291335;28;20035;-76
2023/08/20 07:03:11;;;;;;;13.40;2.70;;;;;;;34.77;25.92;100299.91;10298448;28;20046;-69
2023/08/20 07:08:12;;;;;;;18.48;3.67;;;;;;;34.92;25.33;100298.53;10299047;28;20495;-67
2023/08/20 07:13:13;;;;;;;23.52;3.08;;;;;;;34.94;25.11;100283.28;10299135;28;20050;-68
2023/08/20 07:18:14;;;;;;;29.10;2.78;;;;;;;34.87;25.04;100277.44;10298477;28;20503;-67
2023/08/20 07:23:16;;;;;;;11.10;2.03;;;;;;;35.14;24.27;100286.41;10298825;28;20137;-68
2023/08/20 07:28:26;;;;;;;17.73;2.63;;;;;;;35.11;23.67;100271.34;10298281;28;20517;-68
2023/08/20 07:33:27;;;;;;;17.10;2.65;;;;;;;35.15;23.80;100246.63;10296642;28;20053;-69
2023/08/20 07:38:27;;;;;;;16.52;2.42;;;;;;;35.53;23.91;100270.53;10298587;28;20380;-69
2023/08/20 07:43:28;;;;;;;13.20;2.70;;;;;;;35.58;23.60;100270.38;10299558;28;20042;-68
2023/08/20 07:48:29;;;;;;;13.85;2.40;;;;;;;35.46;23.69;100212.28;10298791;28;20065;-70
2023/08/20 07:53:31;;;;;;;9.02;1.95;;;;;;;35.78;22.97;100260.41;10297592;28;20506;-70
2023/08/20 07:58:31;;;;;;;17.85;3.05;;;;;;;35.78;22.94;100263.19;10297941;28;20394;-69
2023/08/20 08:03:32;;;;;;;36.22;4.78;;;;;;;35.41;23.40;100214.06;10297450;28;20057;-69
2023/08/20 08:08:33;;;;;;;17.75;3.15;;;;;;;35.84;22.69;100251.59;10298407;28;20121;-69
2023/08/20 08:13:34;;;;;;;15.85;2.78;;;;;;;35.86;21.94;100235.47;10324046;28;20073;-68
2023/08/20 08:18:34;;;;;;;14.65;3.10;;;;;;;36.02;22.79;100243.94;10325421;28;20145;-71
2023/08/20 08:23:35;;;;;;;11.68;1.95;;;;;;;36.06;22.56;100238.56;10328177;28;20553;-71
2023/08/20 08:28:36;;;;;;;8.75;2.30;;;;;;;35.91;22.09;100209.56;10322930;28;20046;-70
2023/08/20 08:33:37;;;;;;;13.90;3.28;;;;;;;36.07;22.21;100213.31;10328338;28;20038;-68
2023/08/20 08:38:37;;;;;;;16.50;2.30;;;;;;;36.13;22.03;100219.44;10328027;28;20094;-68
2023/08/20 08:43:39;;;;;;;16.42;3.20;;;;;;;36.18;22.82;100219.22;10333172;28;20462;-70
2023/08/20 08:48:41;;;;;;;;;;;;;;;36.54;21.56;100212.13;10323919;28;20050;-69
2023/08/20 08:53:46;;;;;;;17.85;3.30;;;;;;;36.45;22.83;100197.56;10318161;28;19925;-70
2023/08/20 08:58:47;;;;;;;13.73;2.67;;;;;;;36.31;21.71;100214.50;10322607;28;20057;-69
2023/08/20 09:03:49;;;;;;;10.97;2.67;;;;;;;36.29;21.85;100201.03;10314560;28;20035;-71
2023/08/20 09:08:50;;;;;;;11.48;2.67;;;;;;;36.11;21.73;100158.16;10294781;28;20039;-70
2023/08/20 09:13:51;;;;;;;10.60;2.30;;;;;;;36.47;21.39;100198.03;10294338;28;20102;-72
2023/08/20 09:18:51;;;;;;;44.60;4.28;;;;;;;36.56;22.41;100207.84;10294339;28;20128;-68
2023/08/20 09:23:52;;;;;;;13.20;4.00;;;;;;;36.58;22.42;100173.47;10292230;28;20170;-76
2023/08/20 09:28:56;;;;;;;20.90;3.17;;;;;;;36.73;21.40;100190.19;10294505;28;20055;-76
2023/08/20 09:33:58;;;;;;;11.00;2.50;;;;;;;36.18;20.75;100132.69;10293901;28;20042;-79
2023/08/20 09:38:59;;;;;;;8.55;2.88;;;;;;;36.55;21.94;100163.91;10294298;28;20050;-77
2023/08/20 09:44:02;;;;;;;13.75;3.67;;;;;;;36.52;22.26;100112.03;10276510;28;20409;-79
2023/08/20 09:49:04;;;;;;;12.48;3.33;;;;;;;37.00;21.16;100177.56;10293598;28;20042;-77
2023/08/20 09:54:21;;;;;;;18.70;3.10;;;;;;;37.03;20.39;100130.97;10293646;28;20042;-79
2023/08/20 09:59:22;;;;;;;7.78;3.30;;;;;;;36.92;21.39;100125.91;10292598;28;20116;-77
2023/08/20 10:04:24;;;;;;;13.13;3.40;;;;;;;36.94;21.09;100125.53;10293074;28;20038;-77
2023/08/20 10:09:25;;;;;;;16.90;3.58;;;;;;;36.95;19.92;100116.09;10292260;28;20274;-78
2023/08/20 10:14:26;;;;;;;8.30;2.88;;;;;;;37.00;19.71;100118.63;10293315;28;20051;-79
2023/08/20 10:19:29;;;;;;;14.52;3.00;;;;;;;37.04;19.89;100102.09;10312203;28;20190;-78
2023/08/20 10:24:50;;;;;;;10.33;3.27;;;;;;;36.94;19.75;100070.16;10328517;28;22006;-77
2023/08/20 10:29:52;;;;;;;;;;;;;;;37.35;19.34;100126.34;10324095;28;20077;-77
2023/08/20 10:34:57;;;;;;;10.25;2.95;;;;;;;36.50;19.39;100025.81;10325012;28;19918;-78
2023/08/20 10:39:58;;;;;;;28.65;4.40;;;;;;;37.11;19.27;100110.63;10308158;28;20053;-77
2023/08/20 10:45:09;;;;;;;10.57;2.80;;;;;;;37.12;19.27;100112.25;10319311;28;20425;-78
2023/08/20 10:50:15;;;;;;;14.70;2.67;;;;;;;36.88;19.79;100104.81;10319485;28;20453;-77
2023/08/20 10:55:23;;;;;;;6.85;2.13;;;;;;;36.49;18.58;100030.50;10326591;28;20039;-79
2023/08/20 11:00:23;;;;;;;15.30;2.72;;;;;;;37.05;19.01;100090.69;10321407;28;20042;-78
2023/08/20 11:05:25;;;;;;;11.30;2.67;;;;;;;37.11;19.43;100083.75;10320392;28;20042;-77
2023/08/20 11:10:26;;;;;;;13.80;2.80;;;;;;;37.16;19.88;100079.94;10327821;28;20053;-77
2023/08/20 11:15:27;;;;;;;12.13;1.90;;;;;;;36.53;19.21;99972.56;10329123;28;20046;-77
2023/08/20 11:20:27;;;;;;;16.10;2.87;;;;;;;37.09;19.15;100063.09;10316803;28;20062;-79
2023/08/20 11:25:28;;;;;;;11.45;2.28;;;;;;;37.12;19.04;100068.72;10329317;28;20074;-78
2023/08/20 11:30:30;;;;;;;16.83;2.43;;;;;;;36.91;19.43;100002.47;10329658;28;20092;-78
2023/08/20 11:35:31;;;;;;;5.93;2.15;;;;;;;37.28;19.32;100049.41;10330671;28;20557;-78
2023/08/20 11:40:32;;;;;;;6.83;1.97;;;;;;;36.77;19.37;99991.84;10307434;28;20038;-78
2023/08/20 11:45:33;;;;;;;11.97;2.33;;;;;;;37.02;18.88;100019.41;10290541;28;20047;-79
2023/08/20 11:50:37;;;;;;;15.90;2.70;;;;;;;37.22;19.16;100037.75;10298496;28;20546;-78
2023/08/20 11:55:40;;;;;;;12.07;1.90;;;;;;;37.23;18.99;100042.13;10297346;28;20042;-78
2023/08/20 12:00:41;;;;;;;7.60;2.28;;;;;;;37.16;18.75;100036.41;10297181;28;20414;-79
2023/08/20 12:05:42;;;;;;;10.60;2.33;;;;;;;37.07;19.37;100016.41;10298060;28;20053;-78
2023/08/20 12:10:43;;;;;;;8.63;1.77;;;;;;;37.10;18.86;100021.22;10295147;28;20046;-77
2023/08/20 12:15:44;;;;;;;10.40;2.60;;;;;;;37.05;19.11;100021.47;10298159;28;20402;-74
2023/08/20 12:20:45;;;;;;;7.60;1.90;;;;;;;36.91;19.14;100007.22;10273269;28;20067;-74
2023/08/20 12:25:51;;;;;;;19.70;2.70;;;;;;;36.91;19.37;99990.59;10293871;28;20098;-76
2023/08/20 12:30:52;;;;;;;8.40;2.17;;;;;;;37.05;19.06;100007.63;10295932;28;20068;-77
2023/08/20 12:35:56;;;;;;;12.60;2.57;;;;;;;36.84;18.94;99982.13;10296645;28;20042;-75
2023/08/20 12:40:57;;;;;;;23.40;3.13;;;;;;;36.75;18.97;99941.56;10296579;28;20046;-75
2023/08/20 12:45:57;;;;;;;7.67;1.90;;;;;;;36.78;18.47;99954.69;10296396;28;20126;-76
2023/08/20 12:50:58;;;;;;;15.73;1.98;;;;;;;36.88;19.15;99983.00;10279140;28;20498;-74
2023/08/20 12:55:59;;;;;;;13.23;2.15;;;;;;;36.42;18.28;99911.38;10306599;28;20061;-75
2023/08/20 13:01:00;;;;;;;9.55;2.10;;;;;;;36.82;18.55;99973.34;10332720;28;20046;-75
2023/08/20 13:06:01;;;;;;;6.13;1.83;;;;;;;36.79;18.70;99964.59;10326629;28;20478;-75
2023/08/20 13:11:03;;;;;;;8.90;2.10;;;;;;;36.45;19.04;99923.69;10326335;28;20050;-76
2023/08/20 13:16:04;;;;;;;13.43;1.95;;;;;;;36.36;19.05;99921.06;10333132;28;20038;-75
2023/08/20 13:21:05;;;;;;;10.50;1.70;;;;;;;36.53;19.05;99964.28;10328551;28;20066;-75
2023/08/20 13:26:06;;;;;;;6.70;1.88;;;;;;;36.39;19.05;99953.56;10320460;28;20149;-75
2023/08/20 13:31:07;;;;;;;5.28;1.63;;;;;;;36.39;19.30;99952.75;10323701;28;20042;-75
2023/08/20 13:36:07;;;;;;;9.57;1.83;;;;;;;36.39;19.15;99958.28;10331160;28;20046;-74
2023/08/20 13:41:09;;;;;;;15.35;2.38;;;;;;;36.12;19.64;99921.97;10323803;28;20042;-77
2023/08/20 13:46:10;;;;;;;7.55;2.08;;;;;;;36.27;19.66;99945.31;10332000;28;20077;-76
2023/08/20 13:51:11;;;;;;;15.80;2.33;;;;;;;36.31;20.03;99951.75;10330557;28;20069;-76
2023/08/20 13:56:11;;;;;;;12.07;2.15;;;;;;;36.20;19.89;99940.38;10322650;28;20038;-75
2023/08/20 14:01:13;;;;;;;10.88;2.17;;;;;;;36.11;19.41;99950.78;10332044;28;20413;-74
2023/08/20 14:06:14;;;;;;;7.68;1.77;;;;;;;35.96;18.92;99945.91;10332110;28;20041;-75
2023/08/20 14:11:14;;;;;;;12.25;2.20;;;;;;;35.70;18.97;99907.63;10324764;28;20041;-75
2023/08/20 14:16:15;;;;;;;15.85;2.33;;;;;;;35.79;19.42;99931.22;10314334;28;20065;-76
2023/08/20 14:21:16;;;;;;;40.85;3.97;;;;;;;35.67;19.54;99939.53;10330029;28;20069;-75
2023/08/20 14:26:18;;;;;;;18.40;2.90;;;;;;;35.53;20.01;99933.50;10328364;28;20402;-75
2023/08/20 14:31:19;;;;;;;25.57;3.37;;;;;;;35.46;19.79;99933.28;10327319;28;20807;-75
2023/08/20 14:36:20;;;;;;;20.85;3.40;;;;;;;35.30;20.13;99920.19;10325285;28;20133;-76
2023/08/20 14:41:20;;;;;;;38.47;3.10;;;;;;;35.20;19.58;99920.63;10332866;28;20148;-75
2023/08/20 14:46:21;;;;;;;68.55;6.68;;;;;;;34.96;20.46;99902.03;10332121;28;20476;-75
2023/08/20 14:51:22;;;;;;;13.52;3.25;;;;;;;34.94;20.44;99926.41;10331504;28;20038;-75
2023/08/20 14:56:23;;;;;;;49.57;5.23;;;;;;;34.46;20.74;99875.44;10331409;28;20046;-75
2023/08/20 15:01:24;;;;;;;33.67;3.75;;;;;;;34.58;21.04;99914.13;10331905;28;20046;-75
2023/08/20 15:06:26;;;;;;;16.52;3.13;;;;;;;34.48;20.89;99928.31;10331054;28;20062;-75
2023/08/20 15:11:27;;;;;;;22.75;3.20;;;;;;;34.24;20.76;99904.22;10331022;28;20042;-75
2023/08/20 15:16:28;;;;;;;13.77;2.20;;;;;;;34.12;20.65;99920.69;10331720;28;20045;-75
2023/08/20 15:21:29;;;;;;;13.13;2.50;;;;;;;33.73;20.93;99881.38;10334055;28;20062;-75
2023/08/20 15:26:30;;;;;;;13.02;2.83;;;;;;;33.34;21.36;99867.66;10339404;28;20486;-75
2023/08/20 15:31:31;;;;;;;11.63;2.58;;;;;;;33.49;21.66;99918.59;10339335;28;20506;-76
2023/08/20 15:36:32;;;;;;;12.60;2.53;;;;;;;33.18;21.46;99905.97;10338923;28;20038;-75
2023/08/20 15:41:32;;;;;;;4.45;2.13;;;;;;;33.09;22.27;99929.16;10338832;28;20042;-76
2023/08/20 15:46:34;;;;;;;30.50;4.13;;;;;;;32.88;22.45;99940.81;10338742;28;20041;-75
2023/08/20 15:51:38;;;;;;;20.17;4.18;;;;;;;32.61;22.77;99939.25;10338026;28;20049;-75
2023/08/20 15:56:39;;;;;;;54.80;6.75;;;;;;;32.19;23.67;99929.84;10337769;28;20042;-75
2023/08/20 16:01:40;;;;;;;69.57;8.52;;;;;;;31.92;23.99;99930.94;10337675;28;20108;-75
2023/08/20 16:06:41;;;;;;;53.63;6.57;;;;;;;31.62;24.44;99927.97;10336844;28;20406;-75
2023/08/20 16:11:41;;;;;;;54.97;8.57;;;;;;;30.89;26.45;99895.34;10337116;28;20042;-75
2023/08/20 16:16:42;;;;;;;147.93;32.47;;;;;;;30.76;27.31;99953.81;10336945;28;20499;-73
2023/08/20 16:21:43;;;;;;;169.52;42.70;;;;;;;30.35;28.69;99960.25;10336581;28;20147;-73
2023/08/20 16:26:44;;;;;;;149.73;35.88;;;;;;;29.62;29.92;99906.53;10337117;28;20050;-73
2023/08/20 16:31:44;;;;;;;179.73;51.13;;;;;;;29.24;30.12;99910.25;10337201;28;20034;-73
2023/08/20 16:36:45;;;;;;;143.20;31.38;;;;;;;28.80;31.95;99913.47;10336259;28;20043;-73
2023/08/20 16:41:46;;;;;;;155.95;26.20;;;;;;;28.75;32.79;99963.59;10335369;28;20543;-72
2023/08/20 16:46:47;;;;;;;145.88;23.35;;;;;;;28.32;34.05;99952.72;10336552;28;20034;-73
2023/08/20 16:51:48;;;;;;;66.60;12.75;;;;;;;28.15;34.45;99977.84;10336432;28;20042;-72
2023/08/20 16:56:49;;;;;;;53.88;11.82;;;;;;;27.87;34.90;99981.47;10336560;28;20042;-73
2023/08/20 17:01:50;;;;;;;61.85;10.48;;;;;;;27.54;34.95;99960.25;10335227;28;20042;-73
2023/08/20 17:06:50;;;;;;;46.85;9.10;;;;;;;27.42;35.32;99980.88;10329894;28;20034;-73
2023/08/20 17:11:51;;;;;;;56.90;10.70;;;;;;;27.28;36.23;99978.00;10313637;28;20125;-73
2023/08/20 17:16:52;;;;;;;64.00;12.48;;;;;;;27.10;36.49;99976.75;10294179;28;20478;-76
2023/08/20 17:21:53;;;;;;;88.03;18.08;;;;;;;26.99;36.83;100002.50;10293600;28;20062;-74
2023/08/20 17:26:54;;;;;;;64.97;11.60;;;;;;;26.36;37.32;99929.66;10293629;28;20085;-74
2023/08/20 17:31:54;;;;;;;51.03;9.70;;;;;;;26.57;37.34;99993.00;10285888;28;20097;-74
2023/08/20 17:36:55;;;;;;;51.80;8.18;;;;;;;25.99;37.77;99930.16;10294737;28;20211;-74
2023/08/20 17:41:56;;;;;;;58.00;8.77;;;;;;;26.24;38.85;99998.09;10293548;28;20182;-74
2023/08/20 17:46:57;;;;;;;29.17;6.05;;;;;;;25.81;39.14;99942.44;10292677;28;20058;-75
2023/08/20 17:51:58;;;;;;;45.22;5.85;;;;;;;25.95;38.86;99976.97;10293450;28;20070;-75
2023/08/20 17:56:59;;;;;;;30.73;5.57;;;;;;;25.90;39.18;99987.88;10293558;28;20039;-75
2023/08/20 18:02:00;;;;;;;30.88;4.95;;;;;;;25.67;39.06;99943.06;10292739;28;20094;-75
2023/08/20 18:07:02;;;;;;;27.77;5.50;;;;;;;26.05;39.23;100010.69;10275856;28;20113;-74
2023/08/20 18:12:03;;;;;;;27.67;5.53;;;;;;;26.14;38.86;100011.72;10292225;28;20474;-75
2023/08/20 18:17:04;;;;;;;44.92;7.05;;;;;;;25.83;39.33;99948.47;10275865;28;20038;-75
2023/08/20 18:22:05;;;;;;;44.67;8.27;;;;;;;26.17;38.30;99992.09;10291739;28;20431;-75
2023/08/20 18:27:06;;;;;;;36.72;7.30;;;;;;;26.22;39.00;100010.34;10291949;28;20046;-75
2023/08/20 18:32:07;;;;;;;28.60;7.03;;;;;;;26.27;39.16;100013.84;10291471;28;20046;-75
2023/08/20 18:37:08;;;;;;;23.48;5.78;;;;;;;26.08;36.74;99961.94;10292112;28;20406;-74
2023/08/20 18:42:09;;;;;;;21.35;5.40;;;;;;;26.51;35.43;100005.03;10292409;28;20505;-75
2023/08/20 18:47:10;;;;;;;30.85;6.57;;;;;;;26.69;34.94;100014.47;10291976;28;20093;-75
2023/08/20 18:52:10;;;;;;;19.13;5.18;;;;;;;26.79;33.44;100006.19;10291902;28;20070;-75
2023/08/20 18:57:12;;;;;;;14.23;4.38;;;;;;;26.81;33.49;100007.56;10291840;28;20030;-75
2023/08/20 19:02:13;;;;;;;25.05;5.47;;;;;;;26.84;33.96;100023.34;10291446;28;20052;-75
2023/08/20 19:07:14;;;;;;;17.63;4.22;;;;;;;26.76;33.11;100007.56;10292012;28;20035;-75
2023/08/20 19:12:15;;;;;;;9.93;4.63;;;;;;;26.76;32.79;100018.47;10274295;28;20039;-75
2023/08/20 19:17:16;;;;;;;19.85;4.40;;;;;;;26.77;32.33;100022.81;10291756;28;20486;-75
2023/08/20 19:22:17;;;;;;;9.68;4.40;;;;;;;26.42;32.39;99972.91;10291755;28;20062;-75
2023/08/20 19:27:18;;;;;;;23.50;6.22;;;;;;;26.63;33.20;100013.69;10291227;28;20047;-75
2023/08/20 19:32:20;;;;;;;28.13;7.63;;;;;;;26.43;34.27;100028.19;10289663;28;20039;-75
2023/08/20 19:37:20;;;;;;;39.35;6.70;;;;;;;26.15;34.91;100019.63;10290952;28;20110;-75
2023/08/20 19:42:21;;;;;;;19.50;4.88;;;;;;;25.97;35.60;100022.97;10291461;28;20477;-75
2023/08/20 19:47:22;;;;;;;18.63;3.97;;;;;;;25.87;34.82;100026.53;10290708;28;20575;-75
2023/08/20 19:52:23;;;;;;;14.02;4.55;;;;;;;25.67;35.93;100015.69;10290629;28;20495;-75
2023/08/20 19:57:23;;;;;;;24.90;6.47;;;;;;;25.22;36.47;99952.97;10291139;28;20066;-75
2023/08/20 20:02:24;;;;;;;17.38;5.30;;;;;;;25.62;36.15;100027.38;10291218;28;20050;-75
2023/08/20 20:07:25;;;;;;;19.38;5.40;;;;;;;25.56;36.01;100030.41;10292245;28;20101;-75
2023/08/20 20:12:26;;;;;;;15.57;3.58;;;;;;;25.24;35.51;99960.84;10297555;28;20047;-75
2023/08/20 20:17:27;;;;;;;14.48;4.45;;;;;;;25.49;35.88;100009.75;10297511;28;20410;-75
2023/08/20 20:22:28;;;;;;;14.18;4.00;;;;;;;25.15;36.70;99968.72;10297699;28;20418;-75
2023/08/20 20:27:31;;;;;;;13.45;3.60;;;;;;;25.27;36.53;100007.31;10296881;28;20451;-75
2023/08/20 20:32:35;;;;;;;31.10;5.47;;;;;;;25.20;37.92;100014.94;10296699;28;20039;-75
2023/08/20 20:37:36;;;;;;;27.30;4.60;;;;;;;25.06;37.52;100011.09;10296591;28;20177;-75
2023/08/20 20:42:37;;;;;;;22.58;3.78;;;;;;;25.08;37.19;99997.25;10295853;28;20596;-75
2023/08/20 20:47:38;;;;;;;27.58;4.65;;;;;;;24.96;38.17;100002.97;10296364;28;20042;-75
2023/08/20 20:52:39;;;;;;;30.25;4.63;;;;;;;24.42;37.94;99933.66;10295380;28;20062;-74
2023/08/20 20:57:40;;;;;;;34.47;5.65;;;;;;;24.44;38.83;99944.25;10295466;28;20258;-75
2023/08/20 21:02:41;;;;;;;22.90;4.28;;;;;;;24.79;38.90;99990.44;10295856;28;20082;-75
2023/08/20 21:07:42;;;;;;;34.47;5.43;;;;;;;24.74;38.96;99992.34;10295828;28;20046;-74
2023/08/20 21:12:43;;;;;;;26.77;4.20;;;;;;;24.78;38.50;99991.53;10295278;28;20038;-75
2023/08/20 21:17:43;;;;;;;18.25;4.07;;;;;;;24.66;38.67;99977.41;10294445;28;20038;-75
2023/08/20 21:22:44;;;;;;;18.13;4.10;;;;;;;24.53;39.49;99983.34;10294874;28;20415;-74
2023/08/20 21:27:45;;;;;;;17.25;3.88;;;;;;;24.47;39.54;99987.16;10294867;28;20082;-75
2023/08/20 21:32:46;;;;;;;12.20;3.75;;;;;;;24.18;40.45;99922.47;10293995;28;20186;-75
2023/08/20 21:37:46;;;;;;;11.23;3.42;;;;;;;24.42;39.24;99952.66;10293715;28;20043;-74
2023/08/20 21:42:47;;;;;;;14.38;3.53;;;;;;;24.42;40.02;99974.38;10294148;28;20124;-74
2023/08/20 21:47:48;;;;;;;22.73;3.72;;;;;;;24.38;40.31;99978.69;10293585;28;20379;-73
2023/08/20 21:52:49;;;;;;;11.68;3.38;;;;;;;24.27;40.16;99977.03;10293656;28;20109;-74
2023/08/20 21:57:50;;;;;;;16.08;4.00;;;;;;;24.10;41.53;99974.53;10293473;28;20061;-74
2023/08/20 22:02:51;;;;;;;7.55;2.17;;;;;;;24.11;40.29;99978.88;10292680;28;20047;-74
2023/08/20 22:07:52;;;;;;;9.65;2.20;;;;;;;24.00;40.21;99985.38;10293098;28;20046;-74
2023/08/20 22:12:53;;;;;;;10.90;2.47;;;;;;;23.67;42.10;99981.94;10293444;28;20498;-75
2023/08/20 22:17:54;;;;;;;27.50;3.95;;;;;;;23.40;43.06;99977.44;10292301;28;20498;-74
2023/08/20 22:22:55;;;;;;;12.75;2.53;;;;;;;23.12;43.48;99986.72;10292825;28;20054;-74
2023/08/20 22:27:56;;;;;;;38.42;4.18;;;;;;;22.90;45.08;99970.53;10292810;28;20543;-74
2023/08/20 22:32:57;;;;;;;14.25;3.40;;;;;;;22.65;45.29;99976.56;10292543;28;20034;-74
2023/08/20 22:38:09;;;;;;;8.75;2.58;;;;;;;22.30;46.54;99960.78;10292099;28;20043;-74
2023/08/20 22:43:10;;;;;;;9.50;3.00;;;;;;;22.13;46.05;99970.84;10274778;28;20070;-74
2023/08/20 22:48:10;;;;;;;13.25;3.17;;;;;;;22.09;46.98;99979.47;10291494;28;20074;-75
2023/08/20 22:53:12;;;;;;;6.68;2.72;;;;;;;22.00;47.61;99978.28;10291610;28;20034;-74